createdAt,value
2023-03-29T00:01:42.087Z,88.34
2023-03-29T00:04:10.216Z,88.91
2023-03-29T00:06:59.461Z,88.43
2023-03-29T00:09:26.704Z,88.62
2023-03-29T00:11:53.477Z,88.97
2023-03-29T00:14:19.998Z,88.86
2023-03-29T00:16:46.872Z,88.79
2023-03-29T00:19:13.556Z,88.50
2023-03-29T00:21:40.024Z,88.56
2023-03-29T00:24:06.566Z,88.72
2023-03-29T00:26:32.969Z,88.78
2023-03-29T00:28:59.631Z,89.00
2023-03-29T00:31:27.330Z,88.48
2023-03-29T00:33:53.902Z,88.79
2023-03-29T00:36:22.080Z,88.55
2023-03-29T00:38:48.651Z,88.94
2023-03-29T00:41:15.269Z,89.12
2023-03-29T00:43:56.246Z,89.12
2023-03-29T00:46:23.645Z,88.96
2023-03-29T00:48:53.040Z,88.82
2023-03-29T00:51:22.867Z,89.30
2023-03-29T00:53:53.546Z,89.01
2023-03-29T00:56:37.097Z,89.07
2023-03-29T00:59:15.628Z,88.89
2023-03-29T01:02:03.398Z,89.04
2023-03-29T01:04:41.711Z,88.85
2023-03-29T01:07:30.737Z,88.30
2023-03-29T01:10:23.526Z,88.09
2023-03-29T01:13:03.667Z,87.71
2023-03-29T01:15:30.747Z,87.25
2023-03-29T01:17:58.358Z,87.58
2023-03-29T01:20:43.492Z,87.04
2023-03-29T01:23:34.824Z,87.05
2023-03-29T01:26:19.906Z,87.28
2023-03-29T01:28:56.525Z,86.80
2023-03-29T01:31:28.366Z,86.44
2023-03-29T01:34:08.738Z,86.17
2023-03-29T01:36:58.769Z,85.62
2023-03-29T01:39:25.209Z,84.97
2023-03-29T01:41:57.662Z,85.17
2023-03-29T01:45:03.447Z,85.15
2023-03-29T01:48:03.507Z,84.68
2023-03-29T01:50:43.190Z,84.99
2023-03-29T01:53:38.505Z,84.16
2023-03-29T01:56:18.539Z,84.60
2023-03-29T01:58:52.874Z,84.91
2023-03-29T02:01:25.850Z,84.46
2023-03-29T02:03:57.573Z,84.90
2023-03-29T02:06:27.675Z,84.46
2023-03-29T02:08:55.765Z,84.45
2023-03-29T02:11:24.786Z,85.09
2023-03-29T02:13:51.476Z,85.05
2023-03-29T02:16:19.086Z,85.54
2023-03-29T02:18:48.737Z,85.12
2023-03-29T02:21:34.000Z,85.52
2023-03-29T02:24:06.334Z,86.35
2023-03-29T02:26:33.109Z,85.75
2023-03-29T02:28:59.696Z,85.90
2023-03-29T02:31:40.895Z,86.38
2023-03-29T02:34:19.880Z,85.99
2023-03-29T02:36:48.164Z,86.33
2023-03-29T02:39:16.936Z,86.45
2023-03-29T02:41:47.091Z,86.91
2023-03-29T02:44:18.663Z,86.40
2023-03-29T02:46:48.782Z,86.84
2023-03-29T02:49:15.427Z,87.05
2023-03-29T02:51:42.492Z,87.08
2023-03-29T02:54:22.617Z,87.42
2023-03-29T02:56:55.983Z,87.74
2023-03-29T02:59:22.607Z,88.06
2023-03-29T03:01:49.607Z,87.63
2023-03-29T03:04:18.507Z,87.98
2023-03-29T03:06:44.969Z,88.34
2023-03-29T03:09:11.710Z,87.82
2023-03-29T03:11:38.180Z,88.38
2023-03-29T03:14:05.750Z,88.10
2023-03-29T03:16:32.391Z,88.84
2023-03-29T03:18:59.064Z,89.21
2023-03-29T03:21:28.070Z,88.95
2023-03-29T03:23:55.639Z,87.99
2023-03-29T03:26:23.250Z,88.66
2023-03-29T03:28:49.821Z,88.73
2023-03-29T03:31:17.428Z,88.44
2023-03-29T03:33:44.697Z,88.91
2023-03-29T03:36:11.584Z,89.49
2023-03-29T03:38:38.923Z,89.34
2023-03-29T03:41:07.255Z,89.39
2023-03-29T03:43:34.529Z,89.10
2023-03-29T03:46:01.921Z,89.72
2023-03-29T03:48:28.536Z,89.93
2023-03-29T03:50:57.060Z,89.64
2023-03-29T03:53:25.306Z,89.67
2023-03-29T03:55:53.280Z,89.72
2023-03-29T03:58:19.955Z,89.45
2023-03-29T04:00:50.535Z,89.65
2023-03-29T04:03:18.105Z,90.05
2023-03-29T04:05:46.305Z,89.73
2023-03-29T04:08:13.849Z,89.83
2023-03-29T04:10:40.770Z,90.01
2023-03-29T04:13:07.644Z,89.58
2023-03-29T04:15:38.546Z,90.11
2023-03-29T04:18:07.201Z,90.14
2023-03-29T04:20:34.472Z,89.92
2023-03-29T04:23:01.030Z,89.63
2023-03-29T04:25:27.516Z,89.76
2023-03-29T04:27:54.038Z,89.50
2023-03-29T04:30:20.582Z,89.24
2023-03-29T04:32:47.273Z,89.61
2023-03-29T04:35:13.725Z,89.10
2023-03-29T04:37:40.342Z,89.38
2023-03-29T04:40:14.149Z,89.33
2023-03-29T04:42:45.826Z,89.66
2023-03-29T04:45:19.698Z,89.81
2023-03-29T04:47:46.339Z,89.35
2023-03-29T04:50:13.874Z,89.62
2023-03-29T04:52:40.790Z,89.59
2023-03-29T04:55:07.897Z,88.99
2023-03-29T04:57:34.530Z,89.47
2023-03-29T05:00:01.761Z,89.58
2023-03-29T05:02:30.906Z,89.57
2023-03-29T05:04:57.546Z,89.14
2023-03-29T05:07:24.576Z,89.36
2023-03-29T05:09:51.251Z,89.21
2023-03-29T05:12:17.731Z,89.62
2023-03-29T05:14:44.251Z,89.58
2023-03-29T05:17:10.741Z,89.53
2023-03-29T05:19:38.261Z,89.77
2023-03-29T05:22:04.991Z,89.28
2023-03-29T05:24:31.692Z,89.76
2023-03-29T05:26:58.219Z,88.86
2023-03-29T05:29:24.710Z,89.34
2023-03-29T05:31:52.443Z,89.42
2023-03-29T05:34:19.957Z,89.22
2023-03-29T05:36:46.497Z,89.86
2023-03-29T05:39:12.975Z,89.16
2023-03-29T05:41:40.338Z,89.17
2023-03-29T05:44:07.260Z,89.28
2023-03-29T05:46:33.881Z,88.80
2023-03-29T05:49:01.361Z,88.84
2023-03-29T05:51:27.961Z,89.52
2023-03-29T05:53:54.458Z,89.51
2023-03-29T05:56:22.442Z,88.49
2023-03-29T05:58:49.508Z,89.43
2023-03-29T06:01:17.895Z,88.83
2023-03-29T06:03:46.152Z,88.65
2023-03-29T06:06:16.463Z,89.07
2023-03-29T06:08:44.303Z,89.12
2023-03-29T06:11:13.329Z,89.18
2023-03-29T06:13:42.053Z,88.91
2023-03-29T06:16:13.306Z,87.92
2023-03-29T06:18:41.018Z,88.55
2023-03-29T06:21:09.265Z,87.94
2023-03-29T06:23:36.673Z,87.87
2023-03-29T06:26:03.931Z,87.57
2023-03-29T06:28:30.720Z,87.74
2023-03-29T06:33:30.594Z,88.14
2023-03-29T06:35:57.552Z,87.73
2023-03-29T06:38:26.727Z,88.20
2023-03-29T06:41:00.814Z,87.60
2023-03-29T06:43:27.546Z,87.27
2023-03-29T06:45:54.862Z,87.56
2023-03-29T06:48:21.598Z,87.78
2023-03-29T06:50:48.715Z,88.25
2023-03-29T06:53:18.011Z,88.03
2023-03-29T06:55:44.594Z,88.67
2023-03-29T06:58:11.221Z,88.82
2023-03-29T07:00:39.243Z,89.57
2023-03-29T07:03:09.795Z,89.41
2023-03-29T07:05:40.673Z,90.22
2023-03-29T07:08:07.780Z,90.88
2023-03-29T07:10:41.142Z,90.34
2023-03-29T07:13:13.178Z,90.54
2023-03-29T07:15:41.650Z,90.18
2023-03-29T07:18:09.613Z,89.78
2023-03-29T07:20:38.321Z,89.16
2023-03-29T07:23:05.753Z,88.93
2023-03-29T07:25:33.946Z,88.67
2023-03-29T07:28:00.464Z,88.13
2023-03-29T07:30:31.643Z,88.34
2023-03-29T07:32:59.527Z,88.06
2023-03-29T07:35:27.004Z,88.36
2023-03-29T07:37:55.452Z,87.97
2023-03-29T07:40:23.401Z,88.15
2023-03-29T07:42:53.066Z,88.08
2023-03-29T07:45:26.805Z,87.50
2023-03-29T07:47:57.563Z,87.87
2023-03-29T07:50:24.976Z,87.17
2023-03-29T07:52:51.775Z,87.06
2023-03-29T07:55:18.471Z,86.86
2023-03-29T07:57:44.969Z,86.13
2023-03-29T08:00:17.065Z,86.30
2023-03-29T08:02:49.740Z,86.48
2023-03-29T08:05:26.095Z,86.21
2023-03-29T08:08:00.885Z,85.83
2023-03-29T08:10:27.806Z,85.73
2023-03-29T08:12:54.388Z,85.64
2023-03-29T08:15:20.880Z,85.94
2023-03-29T08:17:47.376Z,86.17
2023-03-29T08:20:16.217Z,85.82
2023-03-29T08:22:43.211Z,86.08
2023-03-29T08:25:10.371Z,86.04
2023-03-29T08:27:37.620Z,86.23
2023-03-29T08:30:07.835Z,86.28
2023-03-29T08:32:34.293Z,85.80
2023-03-29T08:35:03.782Z,85.70
2023-03-29T08:37:31.744Z,86.14
2023-03-29T08:39:58.535Z,85.69
2023-03-29T08:42:55.258Z,85.70
2023-03-29T08:45:27.759Z,85.67
2023-03-29T08:48:09.633Z,85.28
2023-03-29T08:50:40.499Z,85.72
2023-03-29T08:53:32.511Z,84.73
2023-03-29T08:56:02.412Z,85.69
2023-03-29T08:58:32.803Z,86.27
2023-03-29T09:01:03.786Z,85.37
2023-03-29T09:03:35.032Z,85.42
2023-03-29T09:06:07.682Z,86.02
2023-03-29T09:08:39.383Z,85.93
2023-03-29T09:11:26.062Z,86.03
2023-03-29T09:14:27.012Z,85.25
2023-03-29T09:16:56.416Z,86.10
2023-03-29T09:19:37.779Z,85.98
2023-03-29T09:22:04.270Z,86.15
2023-03-29T09:24:44.344Z,86.64
2023-03-29T09:27:50.268Z,87.12
2023-03-29T09:30:26.286Z,86.47
2023-03-29T09:32:56.637Z,85.28
2023-03-29T09:35:41.210Z,85.87
2023-03-29T09:38:12.385Z,85.91
2023-03-29T09:40:48.933Z,85.13
2023-03-29T09:43:19.217Z,84.84
2023-03-29T09:45:53.232Z,84.78
2023-03-29T09:48:20.760Z,85.44
2023-03-29T09:50:51.250Z,85.17
2023-03-29T09:53:19.555Z,84.97
2023-03-29T09:55:50.308Z,83.98
2023-03-29T09:58:25.089Z,84.71
2023-03-29T10:00:53.163Z,84.66
2023-03-29T10:03:28.490Z,85.08
2023-03-29T10:05:58.476Z,84.41
2023-03-29T10:08:39.139Z,84.44
2023-03-29T10:11:23.317Z,85.14
2023-03-29T10:13:56.816Z,84.42
2023-03-29T10:16:25.923Z,83.81
2023-03-29T10:18:54.571Z,82.62
2023-03-29T10:21:22.048Z,82.96
2023-03-29T10:23:49.970Z,82.67
2023-03-29T10:26:24.805Z,82.17
2023-03-29T10:28:54.864Z,81.95
2023-03-29T10:31:22.661Z,82.23
2023-03-29T10:33:57.368Z,82.81
2023-03-29T10:36:27.223Z,82.52
2023-03-29T10:38:57.422Z,82.47
2023-03-29T10:41:27.056Z,82.78
2023-03-29T10:43:54.537Z,81.61
2023-03-29T10:46:30.163Z,83.18
2023-03-29T10:48:57.767Z,83.69
2023-03-29T10:51:27.861Z,84.48
2023-03-29T10:53:54.346Z,84.40
2023-03-29T10:56:37.104Z,85.68
2023-03-29T10:59:29.578Z,86.41
2023-03-29T11:02:14.802Z,85.97
2023-03-29T11:04:56.697Z,85.75
2023-03-29T11:08:08.023Z,86.16
2023-03-29T11:11:02.565Z,86.75
2023-03-29T11:13:48.019Z,88.13
2023-03-29T11:16:46.824Z,88.82
2023-03-29T11:19:26.357Z,89.79
2023-03-29T11:22:03.022Z,90.64
2023-03-29T11:24:50.115Z,90.39
2023-03-29T11:27:31.228Z,89.79
2023-03-29T11:30:16.621Z,90.34
2023-03-29T11:33:04.967Z,90.56
2023-03-29T11:35:31.654Z,90.06
2023-03-29T11:38:27.945Z,88.97
2023-03-29T11:41:16.048Z,88.36
2023-03-29T11:43:58.700Z,87.33
2023-03-29T11:46:33.714Z,87.23
2023-03-29T11:49:12.420Z,86.48
2023-03-29T11:51:54.415Z,84.77
2023-03-29T11:54:41.100Z,84.60
2023-03-29T11:57:29.257Z,85.49
2023-03-29T12:00:05.866Z,85.78
2023-03-29T12:02:46.147Z,85.65
2023-03-29T12:05:39.587Z,85.16
2023-03-29T12:08:15.310Z,84.29
2023-03-29T12:10:53.725Z,84.56
2023-03-29T12:13:33.854Z,84.85
2023-03-29T12:16:08.764Z,86.06
2023-03-29T12:18:51.400Z,86.63
2023-03-29T12:21:22.945Z,86.55
2023-03-29T12:23:50.708Z,85.95
2023-03-29T12:26:44.726Z,85.82
2023-03-29T12:29:14.020Z,85.83
2023-03-29T12:31:53.013Z,86.64
2023-03-29T12:34:35.912Z,87.29
2023-03-29T12:37:09.722Z,87.89
2023-03-29T12:39:37.499Z,88.23
2023-03-29T12:42:17.643Z,88.60
2023-03-29T12:44:49.582Z,89.21
2023-03-29T12:47:25.266Z,90.13
2023-03-29T12:49:56.612Z,90.46
2023-03-29T12:52:41.977Z,90.42
2023-03-29T12:55:29.633Z,90.58
2023-03-29T12:58:06.747Z,91.04
2023-03-29T13:01:05.800Z,90.44
2023-03-29T13:03:49.263Z,89.72
2023-03-29T13:06:35.313Z,89.41
2023-03-29T13:09:20.286Z,88.74
2023-03-29T13:11:53.552Z,88.53
2023-03-29T13:14:23.953Z,88.32
2023-03-29T13:16:50.557Z,88.92
2023-03-29T13:19:36.948Z,88.09
2023-03-29T13:22:25.137Z,87.71
2023-03-29T13:25:10.076Z,87.76
2023-03-29T13:28:04.744Z,86.87
2023-03-29T13:30:45.932Z,86.49
2023-03-29T13:33:38.202Z,86.10
2023-03-29T13:36:18.016Z,86.69
2023-03-29T13:38:48.721Z,86.66
2023-03-29T13:41:37.825Z,86.33
2023-03-29T13:44:05.271Z,86.53
2023-03-29T13:46:42.534Z,86.81
2023-03-29T13:49:15.506Z,86.13
2023-03-29T13:51:58.897Z,85.32
2023-03-29T13:54:33.030Z,85.45
2023-03-29T13:57:11.110Z,84.74
2023-03-29T13:59:49.678Z,84.94
2023-03-29T14:02:53.657Z,84.59
2023-03-29T14:05:28.723Z,84.19
2023-03-29T14:07:55.553Z,83.47
2023-03-29T14:10:31.995Z,83.78
2023-03-29T14:13:04.251Z,83.70
2023-03-29T14:15:51.590Z,83.22
2023-03-29T14:18:22.612Z,83.03
2023-03-29T14:20:54.884Z,83.24
2023-03-29T14:23:27.289Z,83.21
2023-03-29T14:25:53.808Z,82.62
2023-03-29T14:28:28.829Z,83.16
2023-03-29T14:30:56.583Z,83.85
2023-03-29T14:33:33.438Z,83.34
2023-03-29T14:36:05.026Z,83.32
2023-03-29T14:38:32.388Z,82.92
2023-03-29T14:41:00.428Z,81.95
2023-03-29T14:43:30.350Z,81.48
2023-03-29T14:45:58.388Z,81.31
2023-03-29T14:48:25.768Z,80.55
2023-03-29T14:50:52.783Z,80.71
2023-03-29T14:53:22.675Z,79.98
2023-03-29T14:55:52.977Z,79.55
2023-03-29T14:58:19.962Z,79.02
2023-03-29T15:00:50.227Z,78.93
2023-03-29T15:03:17.061Z,78.77
2023-03-29T15:05:50.006Z,79.00
2023-03-29T15:08:32.327Z,79.01
2023-03-29T15:10:59.471Z,78.42
2023-03-29T15:13:27.506Z,78.34
2023-03-29T15:15:58.960Z,78.67
2023-03-29T15:18:40.944Z,78.33
2023-03-29T15:21:09.267Z,77.84
2023-03-29T15:23:41.179Z,78.28
2023-03-29T15:26:07.678Z,78.39
2023-03-29T15:28:35.768Z,77.55
2023-03-29T15:31:14.248Z,78.30
2023-03-29T15:33:42.296Z,78.04
2023-03-29T15:36:12.075Z,77.80
2023-03-29T15:38:44.443Z,78.04
2023-03-29T15:41:13.517Z,76.96
2023-03-29T15:43:41.227Z,77.78
2023-03-29T15:46:08.239Z,77.67
2023-03-29T15:48:35.207Z,77.47
2023-03-29T15:51:05.501Z,77.57
2023-03-29T15:53:33.264Z,77.59
2023-03-29T15:56:01.930Z,77.47
2023-03-29T15:58:31.597Z,77.76
2023-03-29T16:01:11.274Z,77.98
2023-03-29T16:03:41.833Z,77.76
2023-03-29T16:06:12.269Z,78.25
2023-03-29T16:08:38.988Z,77.74
2023-03-29T16:11:06.763Z,78.11
2023-03-29T16:13:33.412Z,78.05
2023-03-29T16:15:59.985Z,78.56
2023-03-29T16:18:27.162Z,78.61
2023-03-29T16:20:54.272Z,78.26
2023-03-29T16:23:20.797Z,78.35
2023-03-29T16:25:47.385Z,78.87
2023-03-29T16:28:13.971Z,79.62
2023-03-29T16:30:43.589Z,79.42
2023-03-29T16:33:10.704Z,79.46
2023-03-29T16:35:39.999Z,79.28
2023-03-29T16:38:08.065Z,79.11
2023-03-29T16:40:35.103Z,79.58
2023-03-29T16:43:01.758Z,79.73
2023-03-29T16:45:28.304Z,80.60
2023-03-29T16:47:55.869Z,80.66
2023-03-29T16:50:23.793Z,81.33
2023-03-29T16:52:52.413Z,81.39
2023-03-29T16:55:19.293Z,81.95
2023-03-29T16:57:47.148Z,82.07
2023-03-29T17:00:15.952Z,82.34
2023-03-29T17:02:43.745Z,82.62
2023-03-29T17:05:12.048Z,82.75
2023-03-29T17:07:39.345Z,82.95
2023-03-29T17:10:08.250Z,82.91
2023-03-29T17:12:35.731Z,83.03
2023-03-29T17:15:03.346Z,83.12
2023-03-29T17:17:29.862Z,83.37
2023-03-29T17:19:57.108Z,83.48
2023-03-29T17:22:24.824Z,83.87
2023-03-29T17:24:51.420Z,83.51
2023-03-29T17:27:18.778Z,83.76
2023-03-29T17:29:45.428Z,84.26
2023-03-29T17:32:13.167Z,83.89
2023-03-29T17:34:39.734Z,84.40
2023-03-29T17:37:06.330Z,84.40
2023-03-29T17:39:37.498Z,84.75
2023-03-29T17:42:05.667Z,85.12
2023-03-29T17:44:33.379Z,85.36
2023-03-29T17:47:00.882Z,85.16
2023-03-29T17:49:27.864Z,86.04
2023-03-29T17:51:54.615Z,86.15
2023-03-29T18:03:36.082Z,86.74
2023-03-29T18:21:12.766Z,88.65
2023-03-29T18:23:42.175Z,88.56
2023-03-29T18:26:09.326Z,89.03
2023-03-29T18:28:37.477Z,89.30
2023-03-29T18:31:05.536Z,89.34
2023-03-29T18:33:35.184Z,89.50
2023-03-29T18:36:09.159Z,89.64
2023-03-29T18:38:40.517Z,89.99
2023-03-29T18:41:08.508Z,89.85
2023-03-29T18:43:35.412Z,90.24
2023-03-29T18:46:02.475Z,90.19
2023-03-29T18:48:30.289Z,89.93
2023-03-29T18:50:57.830Z,90.76
2023-03-29T18:53:24.741Z,90.64
2023-03-29T18:55:51.202Z,90.55
2023-03-29T18:58:18.098Z,90.26
2023-03-29T19:00:44.833Z,90.24
2023-03-29T19:03:11.635Z,90.74
2023-03-29T19:05:39.421Z,90.55
2023-03-29T19:08:07.089Z,90.76
2023-03-29T19:10:38.816Z,91.28
2023-03-29T19:13:06.055Z,91.24
2023-03-29T19:15:34.602Z,91.36
2023-03-29T19:18:01.483Z,91.49
2023-03-29T19:20:29.289Z,91.33
2023-03-29T19:22:56.310Z,91.76
2023-03-29T19:25:22.930Z,92.33
2023-03-29T19:27:50.233Z,91.80
2023-03-29T19:30:18.104Z,92.65
2023-03-29T19:32:44.585Z,92.88
2023-03-29T19:35:12.822Z,93.23
2023-03-29T19:37:39.684Z,93.40
2023-03-29T19:40:08.162Z,93.21
2023-03-29T19:42:37.466Z,93.64
2023-03-29T19:45:09.656Z,93.89
2023-03-29T19:47:37.180Z,94.55
2023-03-29T19:50:04.935Z,94.72
2023-03-29T19:52:31.495Z,95.10
2023-03-29T19:55:00.777Z,95.27
2023-03-29T19:57:28.229Z,95.35
2023-03-29T19:59:54.767Z,95.73
2023-03-29T20:02:21.248Z,96.29
2023-03-29T20:04:47.852Z,96.37
2023-03-29T20:07:14.365Z,96.94
2023-03-29T20:09:44.644Z,97.16
2023-03-29T20:12:12.024Z,97.66
2023-03-29T20:14:40.132Z,97.61
2023-03-29T20:17:07.310Z,97.54
2023-03-29T20:19:36.768Z,97.97
2023-03-29T20:22:04.469Z,98.78
2023-03-29T20:24:32.530Z,99.10
2023-03-29T20:26:59.117Z,98.85
2023-03-29T20:29:25.668Z,98.94
2023-03-29T20:31:52.255Z,99.63
2023-03-29T20:34:19.077Z,99.95
2023-03-29T20:36:46.972Z,100.00
2023-03-29T20:39:17.787Z,100.00
2023-03-29T20:41:47.713Z,100.00
2023-03-29T20:44:16.910Z,100.00
2023-03-29T20:46:54.595Z,100.00
2023-03-29T20:49:26.465Z,100.00
2023-03-29T20:51:58.385Z,100.00
2023-03-29T20:54:25.948Z,100.00
2023-03-29T20:56:54.436Z,100.00
2023-03-29T20:59:22.829Z,100.00
2023-03-29T21:01:50.239Z,100.00
2023-03-29T21:04:16.968Z,100.00
2023-03-29T21:06:45.742Z,100.00
2023-03-29T21:09:13.223Z,100.00
2023-03-29T21:11:40.880Z,100.00
2023-03-29T21:14:09.252Z,100.00
2023-03-29T21:25:40.603Z,100.00
2023-03-29T21:28:07.161Z,99.87
2023-03-29T21:30:33.588Z,100.00
2023-03-29T21:33:01.000Z,100.00
2023-03-29T21:35:28.213Z,100.00
2023-03-29T21:37:54.886Z,100.00
2023-03-29T21:40:21.503Z,100.00
2023-03-29T21:42:47.980Z,100.00
2023-03-29T21:45:15.490Z,100.00
2023-03-29T21:47:42.031Z,99.94
2023-03-29T21:50:09.407Z,100.00
2023-03-29T21:52:37.778Z,99.84
2023-03-29T21:55:05.857Z,100.00
2023-03-29T21:57:32.348Z,100.00
2023-03-29T21:59:58.931Z,100.00
2023-03-29T22:02:25.638Z,100.00
2023-03-29T22:04:52.127Z,99.96
2023-03-29T22:07:18.553Z,100.00
2023-03-29T22:09:46.505Z,99.97
2023-03-29T22:12:12.982Z,100.00
2023-03-29T22:14:39.528Z,99.93
2023-03-29T22:17:06.912Z,100.00
2023-03-29T22:19:41.740Z,99.56
2023-03-29T22:22:13.499Z,100.00
2023-03-29T22:24:41.349Z,99.14
2023-03-29T22:27:08.362Z,99.50
2023-03-29T22:29:34.934Z,99.08
2023-03-29T22:32:01.798Z,98.91
2023-03-29T22:34:28.411Z,98.97
2023-03-29T22:36:54.910Z,98.66
2023-03-29T22:39:21.779Z,98.77
2023-03-29T22:41:48.341Z,98.39
2023-03-29T22:44:14.782Z,98.22
2023-03-29T22:46:42.415Z,97.86
2023-03-29T22:49:09.685Z,97.14
2023-03-29T22:51:36.508Z,96.60
2023-03-29T22:54:03.484Z,96.17
2023-03-29T22:56:29.954Z,96.56
2023-03-29T22:58:56.486Z,95.82
2023-03-29T23:01:22.914Z,95.13
2023-03-29T23:03:49.495Z,94.72
2023-03-29T23:06:16.143Z,94.30
2023-03-29T23:08:42.690Z,93.84
2023-03-29T23:11:09.126Z,94.04
2023-03-29T23:13:35.712Z,93.81
2023-03-29T23:16:03.630Z,93.71
2023-03-29T23:18:31.867Z,93.06
2023-03-29T23:20:58.976Z,92.78
2023-03-29T23:23:26.823Z,92.48
2023-03-29T23:25:55.465Z,92.10
2023-03-29T23:28:25.912Z,91.09
2023-03-29T23:31:09.794Z,91.07
2023-03-29T23:33:42.535Z,90.91
2023-03-29T23:36:15.112Z,90.60
2023-03-29T23:38:42.274Z,90.31
2023-03-29T23:41:10.805Z,89.77
2023-03-29T23:43:40.517Z,89.74
2023-03-29T23:46:11.013Z,89.48
2023-03-29T23:48:38.574Z,89.20
2023-03-29T23:51:07.757Z,88.99
2023-03-29T23:53:34.250Z,88.38
2023-03-29T23:56:03.121Z,88.32
2023-03-29T23:58:32.293Z,88.11
